createdAt,value
2019-03-17T00:00:57.232Z,11.46
2019-03-17T00:01:57.907Z,11.55
2019-03-17T00:02:57.264Z,11.47
2019-03-17T00:03:58.528Z,11.51
2019-03-17T00:04:57.479Z,11.60
2019-03-17T00:05:57.320Z,11.52
2019-03-17T00:06:57.308Z,11.54
2019-03-17T00:07:57.651Z,11.57
2019-03-17T00:08:57.419Z,11.57
2019-03-17T00:09:57.347Z,11.58
2019-03-17T00:10:57.373Z,11.57
2019-03-17T00:11:57.383Z,11.60
2019-03-17T00:12:57.489Z,11.60
2019-03-17T00:13:57.663Z,11.58
2019-03-17T00:15:05.123Z,11.60
2019-03-17T00:15:57.429Z,11.55
2019-03-17T00:16:57.442Z,11.58
2019-03-17T00:17:57.447Z,11.54
2019-03-17T00:18:57.460Z,11.58
2019-03-17T00:19:57.469Z,11.60
2019-03-17T00:20:57.490Z,11.57
2019-03-17T00:21:57.497Z,11.60
2019-03-17T00:22:57.523Z,11.57
2019-03-17T00:23:57.529Z,11.64
2019-03-17T00:25:08.537Z,11.62
2019-03-17T00:25:57.546Z,11.64
2019-03-17T00:26:57.565Z,11.65
2019-03-17T00:27:57.578Z,11.64
2019-03-17T00:28:57.591Z,11.62
2019-03-17T00:29:57.601Z,11.55
2019-03-17T00:30:57.619Z,11.54
2019-03-17T00:31:57.633Z,11.55
2019-03-17T00:32:57.698Z,11.55
2019-03-17T00:33:57.649Z,11.57
2019-03-17T00:34:57.671Z,11.54
2019-03-17T00:35:57.850Z,11.70
2019-03-17T00:36:57.693Z,11.67
2019-03-17T00:37:57.711Z,11.69
2019-03-17T00:38:57.739Z,11.69
2019-03-17T00:39:57.721Z,11.64
2019-03-17T00:40:57.747Z,11.65
2019-03-17T00:41:57.852Z,11.67
2019-03-17T00:42:57.875Z,11.64
2019-03-17T00:43:57.808Z,11.64
2019-03-17T00:44:57.794Z,11.67
2019-03-17T00:45:57.803Z,11.72
2019-03-17T00:46:57.827Z,11.70
2019-03-17T00:47:57.827Z,11.69
2019-03-17T00:48:57.847Z,11.73
2019-03-17T00:49:57.853Z,11.70
2019-03-17T00:50:57.862Z,11.69
2019-03-17T00:51:57.888Z,11.76
2019-03-17T00:52:57.889Z,11.76
2019-03-17T00:53:57.904Z,11.78
2019-03-17T00:54:57.912Z,11.73
2019-03-17T00:55:57.937Z,11.75
2019-03-17T00:56:57.948Z,11.72
2019-03-17T00:57:59.737Z,11.73
2019-03-17T00:58:57.971Z,11.70
2019-03-17T00:59:57.984Z,11.70
2019-03-17T01:00:57.988Z,11.73
2019-03-17T01:01:58.007Z,11.70
2019-03-17T01:02:58.020Z,11.70
2019-03-17T01:03:58.033Z,11.79
2019-03-17T01:04:58.059Z,11.73
2019-03-17T01:05:58.053Z,11.82
2019-03-17T01:06:58.114Z,11.73
2019-03-17T01:07:58.082Z,11.76
2019-03-17T01:08:58.098Z,11.79
2019-03-17T01:09:58.106Z,11.73
2019-03-17T01:10:58.119Z,11.75
2019-03-17T01:11:58.146Z,11.73
2019-03-17T01:12:58.149Z,11.76
2019-03-17T01:13:58.161Z,11.72
2019-03-17T01:14:58.171Z,11.73
2019-03-17T01:15:58.183Z,11.79
2019-03-17T01:16:58.194Z,11.73
2019-03-17T01:17:58.222Z,11.78
2019-03-17T01:18:58.353Z,11.73
2019-03-17T01:19:58.339Z,11.67
2019-03-17T01:20:58.260Z,11.67
2019-03-17T01:21:58.258Z,11.60
2019-03-17T01:22:58.295Z,11.58
2019-03-17T01:23:58.292Z,11.61
2019-03-17T01:24:58.303Z,11.55
2019-03-17T01:25:58.311Z,11.54
2019-03-17T01:26:58.322Z,11.49
2019-03-17T01:27:58.340Z,11.47
2019-03-17T01:28:58.346Z,11.52
2019-03-17T01:29:58.367Z,11.52
2019-03-17T01:30:58.377Z,11.47
2019-03-17T01:31:58.386Z,11.55
2019-03-17T01:32:58.410Z,11.46
2019-03-17T01:33:58.410Z,11.51
2019-03-17T01:35:08.686Z,11.52
2019-03-17T01:35:58.432Z,11.55
2019-03-17T01:36:58.447Z,11.47
2019-03-17T01:37:58.473Z,11.42
2019-03-17T01:38:59.059Z,11.42
2019-03-17T01:39:58.489Z,11.47
2019-03-17T01:40:58.519Z,11.47
2019-03-17T01:41:58.512Z,11.54
2019-03-17T01:42:58.523Z,11.47
2019-03-17T01:43:58.542Z,11.44
2019-03-17T01:44:58.560Z,11.36
2019-03-17T01:45:58.560Z,11.44
2019-03-17T01:46:58.579Z,11.37
2019-03-17T01:47:58.596Z,11.42
2019-03-17T01:48:58.626Z,11.36
2019-03-17T01:49:58.637Z,11.36
2019-03-17T01:50:58.625Z,11.36
2019-03-17T01:51:58.715Z,11.43
2019-03-17T01:52:58.756Z,11.40
2019-03-17T01:53:58.664Z,11.43
2019-03-17T01:54:58.718Z,11.51
2019-03-17T01:55:58.795Z,11.43
2019-03-17T01:56:58.696Z,11.46
2019-03-17T01:57:58.716Z,11.37
2019-03-17T01:58:58.722Z,11.46
2019-03-17T01:59:58.737Z,11.44
2019-03-17T02:00:58.800Z,11.57
2019-03-17T02:01:58.776Z,11.44
2019-03-17T02:02:58.781Z,11.52
2019-03-17T02:03:58.798Z,11.49
2019-03-17T02:04:58.801Z,11.49
2019-03-17T02:06:58.846Z,11.55
2019-03-17T02:07:58.897Z,11.55
2019-03-17T02:08:58.848Z,11.47
2019-03-17T02:09:58.863Z,11.54
2019-03-17T02:10:58.882Z,11.58
2019-03-17T02:11:58.899Z,11.58
2019-03-17T02:12:58.930Z,11.61
2019-03-17T02:13:58.919Z,11.54
2019-03-17T02:14:58.928Z,11.57
2019-03-17T02:15:58.946Z,11.46
2019-03-17T02:16:58.953Z,11.55
2019-03-17T02:17:58.976Z,11.57
2019-03-17T02:18:59.004Z,11.61
2019-03-17T02:19:58.993Z,11.62
2019-03-17T02:20:59.016Z,11.55
2019-03-17T02:21:59.018Z,11.54
2019-03-17T02:22:59.027Z,11.60
2019-03-17T02:23:59.045Z,11.52
2019-03-17T02:24:59.065Z,11.57
2019-03-17T02:25:59.068Z,11.57
2019-03-17T02:26:59.080Z,11.54
2019-03-17T02:27:59.097Z,11.52
2019-03-17T02:28:59.172Z,11.54
2019-03-17T02:29:59.121Z,11.49
2019-03-17T02:30:59.119Z,11.57
2019-03-17T02:31:59.138Z,11.47
2019-03-17T02:32:59.150Z,11.52
2019-03-17T02:33:59.157Z,11.52
2019-03-17T02:34:59.174Z,11.51
2019-03-17T02:35:59.191Z,11.52
2019-03-17T02:36:59.198Z,11.54
2019-03-17T02:37:59.220Z,11.58
2019-03-17T02:38:59.239Z,11.51
2019-03-17T02:39:59.238Z,11.54
2019-03-17T02:40:59.256Z,11.54
2019-03-17T02:41:59.362Z,11.55
2019-03-17T02:42:59.305Z,11.52
2019-03-17T02:43:59.298Z,11.55
2019-03-17T02:44:59.300Z,11.51
2019-03-17T02:46:02.769Z,11.52
2019-03-17T02:46:59.323Z,11.49
2019-03-17T02:47:59.337Z,11.55
2019-03-17T02:48:59.360Z,11.52
2019-03-17T02:49:59.469Z,11.54
2019-03-17T02:50:59.374Z,11.49
2019-03-17T02:51:59.390Z,11.49
2019-03-17T02:52:59.601Z,11.54
2019-03-17T02:53:59.415Z,11.46
2019-03-17T02:54:59.423Z,11.54
2019-03-17T02:55:59.438Z,11.42
2019-03-17T02:56:59.448Z,11.52
2019-03-17T02:57:59.467Z,11.49
2019-03-17T02:58:59.479Z,11.40
2019-03-17T02:59:59.489Z,11.49
2019-03-17T03:00:59.508Z,11.46
2019-03-17T03:01:59.513Z,11.39
2019-03-17T03:02:59.531Z,11.42
2019-03-17T03:03:59.537Z,11.47
2019-03-17T03:04:59.559Z,11.44
2019-03-17T03:05:59.566Z,11.44
2019-03-17T03:06:59.577Z,11.39
2019-03-17T03:07:59.585Z,11.47
2019-03-17T03:08:59.609Z,11.43
2019-03-17T03:09:59.617Z,11.42
2019-03-17T03:10:59.631Z,11.52
2019-03-17T03:11:59.642Z,11.46
2019-03-17T03:12:59.659Z,11.44
2019-03-17T03:13:59.678Z,11.43
2019-03-17T03:14:59.780Z,11.40
2019-03-17T03:15:59.890Z,11.47
2019-03-17T03:16:59.708Z,11.37
2019-03-17T03:17:59.728Z,11.36
2019-03-17T03:18:59.738Z,11.37
2019-03-17T03:19:59.751Z,11.42
2019-03-17T03:20:59.753Z,11.43
2019-03-17T03:21:59.778Z,11.46
2019-03-17T03:22:59.798Z,11.43
2019-03-17T03:23:59.790Z,11.49
2019-03-17T03:24:59.809Z,11.42
2019-03-17T03:25:59.875Z,11.42
2019-03-17T03:26:59.842Z,11.43
2019-03-17T03:27:59.842Z,11.46
2019-03-17T03:28:59.853Z,11.49
2019-03-17T03:29:59.865Z,11.46
2019-03-17T03:30:59.893Z,11.49
2019-03-17T03:31:59.899Z,11.40
2019-03-17T03:32:59.959Z,11.43
2019-03-17T03:33:59.919Z,11.40
2019-03-17T03:34:59.927Z,11.51
2019-03-17T03:36:10.969Z,11.47
2019-03-17T03:36:59.955Z,11.43
2019-03-17T03:37:59.969Z,11.49
2019-03-17T03:38:59.987Z,11.44
2019-03-17T03:39:59.993Z,11.49
2019-03-17T03:41:00.002Z,11.49
2019-03-17T03:42:00.035Z,11.44
2019-03-17T03:43:00.042Z,11.49
2019-03-17T03:44:00.040Z,11.42
2019-03-17T03:45:00.058Z,11.42
2019-03-17T03:46:00.077Z,11.42
2019-03-17T03:47:00.115Z,11.40
2019-03-17T03:48:00.147Z,11.49
2019-03-17T03:49:00.120Z,11.49
2019-03-17T03:50:00.340Z,11.47
2019-03-17T03:51:00.137Z,11.49
2019-03-17T03:52:00.146Z,11.37
2019-03-17T03:53:00.294Z,11.44
2019-03-17T03:54:00.168Z,11.39
2019-03-17T03:55:00.439Z,11.42
2019-03-17T03:56:00.190Z,11.35
2019-03-17T03:57:00.205Z,11.36
2019-03-17T03:58:00.220Z,11.33
2019-03-17T03:59:00.227Z,11.29
2019-03-17T04:00:00.491Z,11.32
2019-03-17T04:01:00.271Z,11.35
2019-03-17T04:02:00.275Z,11.28
2019-03-17T04:03:00.281Z,11.25
2019-03-17T04:04:00.294Z,11.37
2019-03-17T04:05:00.651Z,11.29
2019-03-17T04:06:00.315Z,11.29
2019-03-17T04:07:00.336Z,11.24
2019-03-17T04:08:00.369Z,11.28
2019-03-17T04:09:00.382Z,11.29
2019-03-17T04:10:00.561Z,11.32
2019-03-17T04:11:00.382Z,11.29
2019-03-17T04:12:00.394Z,11.35
2019-03-17T04:13:00.461Z,11.35
2019-03-17T04:14:00.437Z,11.11
2019-03-17T04:15:00.717Z,11.28
2019-03-17T04:16:00.445Z,11.17
2019-03-17T04:17:00.470Z,11.22
2019-03-17T04:18:00.470Z,11.21
2019-03-17T04:19:00.490Z,11.18
2019-03-17T04:20:00.502Z,11.24
2019-03-17T04:21:00.524Z,11.18
2019-03-17T04:22:00.648Z,11.18
2019-03-17T04:23:00.536Z,11.17
2019-03-17T04:24:00.655Z,11.19
2019-03-17T04:25:00.575Z,11.24
2019-03-17T04:26:00.569Z,11.18
2019-03-17T04:27:00.594Z,11.11
2019-03-17T04:28:00.597Z,11.15
2019-03-17T04:29:00.608Z,11.14
2019-03-17T04:30:00.628Z,11.15
2019-03-17T04:31:00.630Z,11.19
2019-03-17T04:32:00.648Z,11.18
2019-03-17T04:33:00.660Z,11.19
2019-03-17T04:34:00.679Z,11.10
2019-03-17T04:35:00.680Z,11.09
2019-03-17T04:36:00.696Z,11.17
2019-03-17T04:37:00.723Z,11.25
2019-03-17T04:38:00.733Z,11.09
2019-03-17T04:39:00.736Z,11.10
2019-03-17T04:40:00.934Z,11.17
2019-03-17T04:41:00.792Z,11.10
2019-03-17T04:42:00.790Z,11.09
2019-03-17T04:43:00.832Z,11.07
2019-03-17T04:44:00.846Z,11.04
2019-03-17T04:45:00.810Z,11.03
2019-03-17T04:46:00.829Z,11.00
2019-03-17T04:47:00.836Z,11.06
2019-03-17T04:48:00.843Z,10.99
2019-03-17T04:49:00.964Z,10.91
2019-03-17T04:50:00.878Z,10.99
2019-03-17T04:51:01.041Z,11.02
2019-03-17T04:52:00.901Z,10.96
2019-03-17T04:53:00.939Z,10.96
2019-03-17T04:54:00.921Z,10.94
2019-03-17T04:55:00.933Z,10.89
2019-03-17T04:56:00.947Z,10.84
2019-03-17T04:57:00.959Z,10.81
2019-03-17T04:58:00.975Z,10.86
2019-03-17T04:59:00.981Z,10.81
2019-03-17T05:00:00.998Z,10.74
2019-03-17T05:01:01.007Z,10.71
2019-03-17T05:02:01.023Z,10.68
2019-03-17T05:03:01.032Z,10.76
2019-03-17T05:04:01.048Z,10.61
2019-03-17T05:05:01.055Z,10.61
2019-03-17T05:06:01.070Z,10.63
2019-03-17T05:07:01.077Z,10.53
2019-03-17T05:08:01.122Z,10.61
2019-03-17T05:09:01.111Z,10.67
2019-03-17T05:10:01.120Z,10.48
2019-03-17T05:11:01.130Z,10.48
2019-03-17T05:12:01.153Z,10.47
2019-03-17T05:13:01.155Z,10.34
2019-03-17T05:14:01.166Z,10.33
2019-03-17T05:15:01.203Z,10.27
2019-03-17T05:16:01.208Z,10.15
2019-03-17T05:17:01.203Z,10.18
2019-03-17T05:18:01.213Z,10.20
2019-03-17T05:19:01.239Z,10.17
2019-03-17T05:20:01.243Z,10.05
2019-03-17T05:21:01.250Z,10.12
2019-03-17T05:22:01.263Z,10.01
2019-03-17T05:23:01.279Z,10.01
2019-03-17T05:24:01.296Z,9.93
2019-03-17T05:25:01.313Z,9.97
2019-03-17T05:26:01.329Z,9.93
2019-03-17T05:27:01.325Z,9.91
2019-03-17T05:28:01.343Z,9.91
2019-03-17T05:29:01.352Z,9.93
2019-03-17T05:30:01.362Z,9.90
2019-03-17T05:31:01.380Z,9.87
2019-03-17T05:32:01.396Z,9.90
2019-03-17T05:33:01.406Z,9.91
2019-03-17T05:34:01.410Z,9.87
2019-03-17T05:35:01.420Z,9.87
2019-03-17T05:36:01.437Z,9.87
2019-03-17T05:37:06.467Z,9.90
2019-03-17T05:38:01.474Z,9.81
2019-03-17T05:39:01.469Z,9.78
2019-03-17T05:40:01.484Z,9.81
2019-03-17T05:41:01.501Z,9.81
2019-03-17T05:42:01.517Z,9.84
2019-03-17T05:43:01.524Z,9.79
2019-03-17T05:44:01.534Z,9.83
2019-03-17T05:45:01.545Z,9.78
2019-03-17T05:46:01.557Z,9.76
2019-03-17T05:47:01.670Z,9.75
2019-03-17T05:48:01.582Z,9.76
2019-03-17T05:49:01.598Z,9.71
2019-03-17T05:50:01.606Z,9.76
2019-03-17T05:51:01.613Z,9.72
2019-03-17T05:52:01.626Z,9.74
2019-03-17T05:53:01.645Z,9.78
2019-03-17T05:54:01.658Z,9.76
2019-03-17T05:55:01.762Z,9.72
2019-03-17T05:56:01.679Z,9.74
2019-03-17T05:57:01.695Z,9.74
2019-03-17T05:58:01.697Z,9.74
2019-03-17T05:59:01.709Z,9.75
2019-03-17T06:00:01.721Z,9.74
2019-03-17T06:01:01.741Z,9.69
2019-03-17T06:02:01.745Z,9.74
2019-03-17T06:03:01.860Z,9.78
2019-03-17T06:04:01.770Z,9.71
2019-03-17T06:05:01.786Z,9.71
2019-03-17T06:06:01.797Z,9.69
2019-03-17T06:07:01.804Z,9.68
2019-03-17T06:08:01.816Z,9.71
2019-03-17T06:09:01.830Z,9.66
2019-03-17T06:10:01.848Z,9.68
2019-03-17T06:11:01.862Z,9.69
2019-03-17T06:12:01.926Z,9.74
2019-03-17T06:13:01.887Z,9.72
2019-03-17T06:14:01.901Z,9.75
2019-03-17T06:15:01.902Z,9.78
2019-03-17T06:16:01.913Z,9.69
2019-03-17T06:17:01.925Z,9.71
2019-03-17T06:18:02.238Z,9.71
2019-03-17T06:19:01.984Z,9.65
2019-03-17T06:20:01.965Z,9.69
2019-03-17T06:21:01.979Z,9.68
2019-03-17T06:22:02.040Z,9.72
2019-03-17T06:23:02.104Z,9.68
2019-03-17T06:24:02.008Z,9.68
2019-03-17T06:25:02.037Z,9.68
2019-03-17T06:26:02.042Z,9.66
2019-03-17T06:27:02.050Z,9.64
2019-03-17T06:28:02.123Z,9.58
2019-03-17T06:29:02.268Z,9.68
2019-03-17T06:30:02.085Z,9.60
2019-03-17T06:31:02.097Z,9.57
2019-03-17T06:32:02.105Z,9.71
2019-03-17T06:33:02.120Z,9.64
2019-03-17T06:34:02.135Z,9.56
2019-03-17T06:35:02.237Z,9.61
2019-03-17T06:36:02.160Z,9.60
2019-03-17T06:37:02.163Z,9.69
2019-03-17T06:38:02.182Z,9.71
2019-03-17T06:39:02.190Z,9.68
2019-03-17T06:40:02.198Z,9.68
2019-03-17T06:41:04.373Z,9.72
2019-03-17T06:42:02.221Z,9.72
2019-03-17T06:43:02.273Z,9.64
2019-03-17T06:44:02.257Z,9.66
2019-03-17T06:45:02.504Z,9.64
2019-03-17T06:46:02.286Z,9.53
2019-03-17T06:47:03.676Z,9.51
2019-03-17T06:48:02.324Z,9.50
2019-03-17T06:49:02.315Z,9.57
2019-03-17T06:50:02.321Z,9.51
2019-03-17T06:51:02.332Z,9.57
2019-03-17T06:52:02.343Z,9.56
2019-03-17T06:53:02.358Z,9.56
2019-03-17T06:54:02.468Z,9.60
2019-03-17T06:55:02.379Z,9.58
2019-03-17T06:56:02.399Z,9.57
2019-03-17T06:57:02.427Z,9.58
2019-03-17T06:58:02.468Z,9.58
2019-03-17T06:59:02.550Z,9.47
2019-03-17T07:00:02.516Z,9.48
2019-03-17T07:01:02.453Z,9.58
2019-03-17T07:02:02.464Z,9.58
2019-03-17T07:03:02.482Z,9.58
2019-03-17T07:04:02.491Z,9.51
2019-03-17T07:05:02.504Z,9.58
2019-03-17T07:06:02.519Z,9.56
2019-03-17T07:07:02.524Z,9.57
2019-03-17T07:08:02.546Z,9.57
2019-03-17T07:09:02.556Z,9.56
2019-03-17T07:10:02.568Z,9.51
2019-03-17T07:11:02.583Z,9.60
2019-03-17T07:12:02.584Z,9.51
2019-03-17T07:13:02.607Z,9.54
2019-03-17T07:14:02.619Z,9.57
2019-03-17T07:15:02.627Z,9.60
2019-03-17T07:16:02.653Z,9.53
2019-03-17T07:17:02.647Z,9.56
2019-03-17T07:18:02.661Z,9.58
2019-03-17T07:20:02.690Z,9.48
2019-03-17T07:21:02.694Z,9.61
2019-03-17T07:22:02.714Z,9.50
2019-03-17T07:23:02.717Z,9.53
2019-03-17T07:24:02.730Z,9.38
2019-03-17T07:25:02.741Z,9.39
2019-03-17T07:26:02.755Z,9.31
2019-03-17T07:27:02.774Z,9.26
2019-03-17T07:28:02.777Z,9.35
2019-03-17T07:29:02.801Z,9.15
2019-03-17T07:30:02.802Z,9.21
2019-03-17T07:31:02.815Z,9.10
2019-03-17T07:32:02.855Z,9.21
2019-03-17T07:33:02.841Z,9.08
2019-03-17T07:34:02.853Z,9.04
2019-03-17T07:35:02.867Z,8.81
2019-03-17T07:36:02.872Z,8.68
2019-03-17T07:37:02.888Z,8.74
2019-03-17T07:38:02.908Z,8.74
2019-03-17T07:39:11.724Z,8.56
2019-03-17T07:40:02.917Z,8.40
2019-03-17T07:41:02.940Z,8.29
2019-03-17T07:42:02.943Z,8.18
2019-03-17T07:43:02.953Z,8.19
2019-03-17T07:44:02.980Z,8.15
2019-03-17T07:45:02.975Z,8.07
2019-03-17T07:46:02.987Z,8.16
2019-03-17T07:47:02.999Z,8.04
2019-03-17T07:48:03.044Z,8.02
2019-03-17T07:49:03.022Z,7.95
2019-03-17T07:50:03.032Z,8.02
2019-03-17T07:51:03.041Z,8.00
2019-03-17T07:52:03.054Z,7.92
2019-03-17T07:53:03.065Z,7.97
2019-03-17T07:54:03.083Z,7.97
2019-03-17T07:55:03.085Z,7.98
2019-03-17T07:56:03.098Z,8.00
2019-03-17T07:57:03.126Z,7.82
2019-03-17T07:58:03.135Z,7.85
2019-03-17T07:59:03.167Z,7.98
2019-03-17T08:00:03.243Z,7.93
2019-03-17T08:01:03.166Z,7.95
2019-03-17T08:02:03.170Z,7.95
2019-03-17T08:04:03.682Z,8.01
2019-03-17T08:05:03.478Z,7.97
2019-03-17T08:06:03.218Z,7.92
2019-03-17T08:07:03.227Z,7.97
2019-03-17T08:08:09.449Z,7.90
2019-03-17T08:09:03.245Z,7.90
2019-03-17T08:10:03.257Z,7.98
2019-03-17T08:11:03.269Z,7.90
2019-03-17T08:12:03.288Z,7.92
2019-03-17T08:13:03.282Z,7.97
2019-03-17T08:14:03.299Z,8.05
2019-03-17T08:15:03.307Z,7.97
2019-03-17T08:16:03.330Z,7.93
2019-03-17T08:17:03.355Z,7.95
2019-03-17T08:18:03.352Z,7.93
2019-03-17T08:19:03.418Z,7.98
2019-03-17T08:20:03.371Z,8.07
2019-03-17T08:21:03.381Z,8.02
2019-03-17T08:22:03.390Z,8.02
2019-03-17T08:23:03.397Z,7.89
2019-03-17T08:24:03.408Z,7.98
2019-03-17T08:25:03.433Z,7.98
2019-03-17T08:26:03.443Z,7.95
2019-03-17T08:27:03.444Z,7.92
2019-03-17T08:28:03.463Z,8.00
2019-03-17T08:29:03.483Z,8.01
2019-03-17T08:30:03.476Z,8.07
2019-03-17T08:31:03.495Z,8.05
2019-03-17T08:32:03.511Z,8.05
2019-03-17T08:33:03.510Z,8.18
2019-03-17T08:34:03.553Z,8.19
2019-03-17T08:36:03.981Z,8.11
2019-03-17T08:37:03.565Z,8.05
2019-03-17T08:38:03.569Z,8.18
2019-03-17T08:39:03.581Z,8.05
2019-03-17T08:40:03.594Z,8.07
2019-03-17T08:41:03.616Z,8.08
2019-03-17T08:42:03.621Z,8.15
2019-03-17T08:43:03.631Z,8.16
2019-03-17T08:44:03.637Z,8.30
2019-03-17T08:45:03.654Z,8.29
2019-03-17T08:46:03.665Z,8.28
2019-03-17T08:47:03.689Z,8.33
2019-03-17T08:48:03.692Z,8.50
2019-03-17T08:49:03.693Z,8.58
2019-03-17T08:50:03.715Z,8.62
2019-03-17T08:51:03.724Z,8.55
2019-03-17T08:52:03.760Z,8.50
2019-03-17T08:53:03.744Z,8.55
2019-03-17T08:54:03.757Z,8.65
2019-03-17T08:55:03.773Z,8.74
2019-03-17T08:56:03.776Z,8.86
2019-03-17T08:57:03.801Z,8.74
2019-03-17T08:58:03.826Z,8.81
2019-03-17T08:59:03.817Z,8.81
2019-03-17T09:00:03.831Z,8.76
2019-03-17T09:01:03.876Z,8.86
2019-03-17T09:02:03.887Z,8.80
2019-03-17T09:03:03.874Z,8.76
2019-03-17T09:04:03.898Z,8.79
2019-03-17T09:05:03.887Z,8.79
2019-03-17T09:06:03.903Z,8.71
2019-03-17T09:07:04.024Z,8.83
2019-03-17T09:08:04.242Z,8.84
2019-03-17T09:09:03.956Z,8.91
2019-03-17T09:10:03.958Z,8.96
2019-03-17T09:11:03.968Z,9.04
2019-03-17T09:12:03.994Z,8.86
2019-03-17T09:13:04.430Z,8.77
2019-03-17T09:14:03.999Z,8.76
2019-03-17T09:15:04.008Z,8.80
2019-03-17T09:16:04.021Z,8.83
2019-03-17T09:17:13.837Z,8.87
2019-03-17T09:18:04.053Z,8.87
2019-03-17T09:19:04.074Z,8.92
2019-03-17T09:20:04.083Z,8.87
2019-03-17T09:21:04.089Z,8.96
2019-03-17T09:22:04.106Z,8.81
2019-03-17T09:23:04.110Z,8.84
2019-03-17T09:24:16.281Z,8.84
2019-03-17T09:25:04.135Z,8.70
2019-03-17T09:26:04.171Z,8.83
2019-03-17T09:27:04.220Z,8.84
2019-03-17T09:28:04.177Z,8.81
2019-03-17T09:29:04.182Z,8.99
2019-03-17T09:30:04.196Z,8.98
2019-03-17T09:31:07.233Z,9.10
2019-03-17T09:32:04.289Z,9.17
2019-03-17T09:33:04.243Z,9.21
2019-03-17T09:34:04.244Z,9.28
2019-03-17T09:35:04.330Z,9.21
2019-03-17T09:36:04.268Z,9.18
2019-03-17T09:37:04.280Z,9.20
2019-03-17T09:38:04.291Z,9.15
2019-03-17T09:39:04.311Z,9.10
2019-03-17T09:40:04.313Z,9.17
2019-03-17T09:41:04.327Z,9.10
2019-03-17T09:42:04.363Z,9.08
2019-03-17T09:43:04.349Z,9.20
2019-03-17T09:44:04.373Z,9.20
2019-03-17T09:45:04.409Z,9.28
2019-03-17T09:46:04.405Z,9.39
2019-03-17T09:47:04.404Z,9.21
2019-03-17T09:48:04.415Z,9.17
2019-03-17T09:49:04.427Z,9.17
2019-03-17T09:50:04.474Z,9.17
2019-03-17T09:51:04.579Z,9.21
2019-03-17T09:52:04.489Z,9.23
2019-03-17T09:53:04.486Z,9.26
2019-03-17T09:54:04.493Z,9.35
2019-03-17T09:55:04.500Z,9.28
2019-03-17T09:56:04.522Z,9.32
2019-03-17T09:57:04.560Z,9.36
2019-03-17T09:58:04.599Z,9.29
2019-03-17T09:59:04.553Z,9.33
2019-03-17T10:00:04.571Z,9.33
2019-03-17T10:01:04.584Z,9.38
2019-03-17T10:02:04.591Z,9.53
2019-03-17T10:03:04.602Z,9.53
2019-03-17T10:04:04.615Z,9.53
2019-03-17T10:05:04.646Z,9.47
2019-03-17T10:06:04.704Z,9.53
2019-03-17T10:07:04.672Z,9.43
2019-03-17T10:08:04.694Z,9.48
2019-03-17T10:09:04.689Z,9.46
2019-03-17T10:10:04.697Z,9.47
2019-03-17T10:11:04.731Z,9.53
2019-03-17T10:12:04.719Z,9.50
2019-03-17T10:13:04.717Z,9.53
2019-03-17T10:14:04.737Z,9.54
2019-03-17T10:15:04.777Z,9.66
2019-03-17T10:16:04.759Z,9.57
2019-03-17T10:17:04.773Z,9.64
2019-03-17T10:18:04.847Z,9.64
2019-03-17T10:19:04.809Z,9.69
2019-03-17T10:20:04.812Z,9.56
2019-03-17T10:21:04.830Z,9.61
2019-03-17T10:22:04.883Z,9.54
2019-03-17T10:23:04.874Z,9.60
2019-03-17T10:24:04.854Z,9.69
2019-03-17T10:25:04.867Z,9.72
2019-03-17T10:26:04.889Z,9.66
2019-03-17T10:27:04.901Z,9.58
2019-03-17T10:28:04.908Z,9.48
2019-03-17T10:29:05.005Z,9.54
2019-03-17T10:30:04.983Z,9.65
2019-03-17T10:31:04.971Z,9.48
2019-03-17T10:32:04.964Z,9.61
2019-03-17T10:33:04.976Z,9.51
2019-03-17T10:34:04.992Z,9.57
2019-03-17T10:35:05.001Z,9.42
2019-03-17T10:36:05.103Z,9.28
2019-03-17T10:37:05.020Z,9.21
2019-03-17T10:38:05.046Z,9.26
2019-03-17T10:39:12.525Z,9.23
2019-03-17T10:40:05.099Z,9.14
2019-03-17T10:41:05.074Z,9.14
2019-03-17T10:42:05.186Z,9.18
2019-03-17T10:43:05.095Z,9.13
2019-03-17T10:44:05.132Z,9.04
2019-03-17T10:45:05.127Z,8.96
2019-03-17T10:46:05.302Z,8.86
2019-03-17T10:47:05.148Z,8.79
2019-03-17T10:48:05.154Z,8.81
2019-03-17T10:49:05.172Z,8.79
2019-03-17T10:50:05.180Z,8.68
2019-03-17T10:51:05.194Z,8.77
2019-03-17T10:52:05.201Z,8.70
2019-03-17T10:53:05.213Z,8.58
2019-03-17T10:54:05.238Z,8.50
2019-03-17T10:55:05.241Z,8.37
2019-03-17T10:56:05.250Z,8.40
2019-03-17T10:57:05.308Z,8.52
2019-03-17T10:58:05.442Z,8.50
2019-03-17T10:59:05.288Z,8.34
2019-03-17T11:00:05.301Z,8.40
2019-03-17T11:01:05.312Z,8.37
2019-03-17T11:02:05.335Z,8.41
2019-03-17T11:03:05.336Z,8.37
2019-03-17T11:04:05.362Z,8.52
2019-03-17T11:05:05.362Z,8.53
2019-03-17T11:06:05.413Z,8.55
2019-03-17T11:07:05.387Z,8.56
2019-03-17T11:08:05.397Z,8.55
2019-03-17T11:09:05.420Z,8.65
2019-03-17T11:10:05.421Z,8.66
2019-03-17T11:11:05.452Z,8.76
2019-03-17T11:12:05.450Z,8.99
2019-03-17T11:13:05.525Z,9.02
2019-03-17T11:14:05.591Z,9.02
2019-03-17T11:15:05.493Z,9.01
2019-03-17T11:16:05.543Z,9.04
2019-03-17T11:17:05.512Z,8.96
2019-03-17T11:18:05.520Z,9.11
2019-03-17T11:19:05.529Z,9.10
2019-03-17T11:20:05.543Z,9.05
2019-03-17T11:21:05.557Z,9.21
2019-03-17T11:22:05.566Z,9.40
2019-03-17T11:23:05.589Z,9.57
2019-03-17T11:24:05.642Z,9.48
2019-03-17T11:25:05.662Z,9.57
2019-03-17T11:26:05.628Z,9.64
2019-03-17T11:27:05.630Z,9.76
2019-03-17T11:28:05.637Z,9.89
2019-03-17T11:29:05.651Z,10.17
2019-03-17T11:30:05.688Z,10.18
2019-03-17T11:31:05.675Z,10.26
2019-03-17T11:32:06.746Z,10.48
2019-03-17T11:33:05.697Z,10.42
2019-03-17T11:34:05.710Z,10.48
2019-03-17T11:35:05.723Z,10.48
2019-03-17T11:36:05.737Z,10.48
2019-03-17T11:37:05.762Z,10.51
2019-03-17T11:38:05.767Z,10.38
2019-03-17T11:39:05.784Z,10.40
2019-03-17T11:40:05.786Z,10.36
2019-03-17T11:41:05.905Z,10.33
2019-03-17T11:42:05.812Z,10.22
2019-03-17T11:43:05.841Z,10.11
2019-03-17T11:44:05.838Z,10.02
2019-03-17T11:45:05.876Z,10.11
2019-03-17T11:46:05.867Z,10.12
2019-03-17T11:47:05.876Z,10.01
2019-03-17T11:48:05.901Z,10.09
2019-03-17T11:49:05.903Z,9.83
2019-03-17T11:50:05.919Z,9.76
2019-03-17T11:51:05.929Z,9.79
2019-03-17T11:52:05.937Z,9.93
2019-03-17T11:53:05.957Z,9.97
2019-03-17T11:54:05.967Z,9.97
2019-03-17T11:55:05.978Z,9.89
2019-03-17T11:56:06.006Z,9.79
2019-03-17T11:57:06.037Z,9.71
2019-03-17T11:58:06.014Z,9.54
2019-03-17T11:59:06.033Z,9.66
2019-03-17T12:00:06.043Z,9.56
2019-03-17T12:01:06.067Z,9.51
2019-03-17T12:02:06.070Z,9.39
2019-03-17T12:03:06.078Z,9.15
2019-03-17T12:04:06.106Z,9.11
2019-03-17T12:05:06.106Z,9.05
2019-03-17T12:06:06.121Z,9.21
2019-03-17T12:07:06.126Z,9.23
2019-03-17T12:08:06.137Z,9.29
2019-03-17T12:09:06.252Z,9.18
2019-03-17T12:10:06.159Z,9.08
2019-03-17T12:11:06.171Z,9.08
2019-03-17T12:12:06.190Z,9.10
2019-03-17T12:13:06.356Z,9.04
2019-03-17T12:14:06.211Z,9.10
2019-03-17T12:15:06.220Z,9.17
2019-03-17T12:16:06.243Z,9.21
2019-03-17T12:17:06.266Z,9.29
2019-03-17T12:18:06.269Z,9.38
2019-03-17T12:19:06.372Z,9.26
2019-03-17T12:20:06.292Z,9.28
2019-03-17T12:21:06.292Z,9.38
2019-03-17T12:22:09.286Z,9.54
2019-03-17T12:23:06.372Z,9.75
2019-03-17T12:24:06.332Z,9.94
2019-03-17T12:25:06.342Z,10.23
2019-03-17T12:26:06.357Z,10.22
2019-03-17T12:27:06.369Z,10.14
2019-03-17T12:28:06.385Z,10.18
2019-03-17T12:29:06.394Z,9.97
2019-03-17T12:30:06.418Z,10.02
2019-03-17T12:31:06.416Z,10.07
2019-03-17T12:32:06.478Z,10.05
2019-03-17T12:33:06.443Z,10.05
2019-03-17T12:34:06.460Z,10.29
2019-03-17T12:35:06.480Z,10.44
2019-03-17T12:36:06.480Z,10.45
2019-03-17T12:37:06.498Z,10.63
2019-03-17T12:38:06.510Z,10.61
2019-03-17T12:39:06.515Z,10.81
2019-03-17T12:40:06.535Z,10.68
2019-03-17T12:41:06.594Z,10.76
2019-03-17T12:42:06.586Z,10.81
2019-03-17T12:43:06.574Z,10.85
2019-03-17T12:44:06.624Z,11.07
2019-03-17T12:45:06.605Z,11.14
2019-03-17T12:46:06.607Z,11.25
2019-03-17T12:47:06.641Z,11.33
2019-03-17T12:48:06.635Z,11.32
2019-03-17T12:49:06.651Z,11.32
2019-03-17T12:50:06.692Z,11.36
2019-03-17T12:51:06.681Z,11.14
2019-03-17T12:52:06.689Z,11.09
2019-03-17T12:53:07.853Z,11.11
2019-03-17T12:54:06.720Z,11.04
2019-03-17T12:55:06.871Z,11.18
2019-03-17T12:56:06.750Z,11.57
2019-03-17T12:58:06.760Z,11.88
2019-03-17T12:59:06.773Z,11.88
2019-03-17T13:00:06.793Z,12.01
2019-03-17T13:01:06.799Z,12.16
2019-03-17T13:02:06.915Z,12.35
2019-03-17T13:03:06.834Z,12.39
2019-03-17T13:04:06.861Z,12.50
2019-03-17T13:05:06.858Z,12.65
2019-03-17T13:06:06.886Z,12.57
2019-03-17T13:07:06.886Z,12.09
2019-03-17T13:08:07.222Z,11.82
2019-03-17T13:09:06.908Z,11.72
2019-03-17T13:10:15.589Z,11.91
2019-03-17T13:11:06.942Z,12.09